createdAt,value
2023-05-25T00:03:52.723Z,97442.75
2023-05-25T00:09:13.796Z,97435.06
2023-05-25T00:14:34.591Z,97430.06
2023-05-25T00:19:58.178Z,97439.84
2023-05-25T00:25:20.975Z,97429.59
2023-05-25T00:30:41.803Z,97425.34
2023-05-25T00:36:03.474Z,97423.28
2023-05-25T00:41:26.139Z,97419.56
2023-05-25T00:46:52.455Z,97431.22
2023-05-25T00:52:15.590Z,97442.75
2023-05-25T00:57:41.585Z,97435.25
2023-05-25T01:03:11.883Z,97428.66
2023-05-25T01:08:34.302Z,97428.16
2023-05-25T01:13:56.297Z,97437.44
2023-05-25T01:19:17.182Z,97433.16
2023-05-25T01:25:24.793Z,97433.50
2023-05-25T01:30:48.845Z,97438.25
2023-05-25T01:36:10.068Z,97444.63
2023-05-25T01:41:31.687Z,97438.47
2023-05-25T01:47:01.082Z,97444.63
2023-05-25T01:52:32.563Z,97445.84
2023-05-25T01:57:58.012Z,97443.13
2023-05-25T02:03:20.175Z,97450.69
2023-05-25T02:08:44.182Z,97454.16
2023-05-25T02:14:05.277Z,97460.91
2023-05-25T02:19:25.961Z,97458.31
2023-05-25T02:24:46.805Z,97450.00
2023-05-25T02:30:08.462Z,97455.59
2023-05-25T02:35:29.599Z,97463.00
2023-05-25T02:40:50.353Z,97470.38
2023-05-25T02:46:11.084Z,97468.50
2023-05-25T02:51:33.602Z,97472.03
2023-05-25T02:56:54.329Z,97481.50
2023-05-25T03:02:18.548Z,97484.84
2023-05-25T03:07:39.563Z,97478.69
2023-05-25T03:13:00.604Z,97472.53
2023-05-25T03:18:21.529Z,97472.16
2023-05-25T03:23:42.738Z,97484.78
2023-05-25T03:29:03.498Z,97475.59
2023-05-25T03:34:24.795Z,97482.69
2023-05-25T03:39:46.024Z,97484.22
2023-05-25T03:45:09.136Z,97496.31
2023-05-25T03:50:30.896Z,97490.50
2023-05-25T03:55:52.468Z,97490.75
2023-05-25T04:01:13.831Z,97499.16
2023-05-25T04:06:37.513Z,97500.34
2023-05-25T04:11:59.190Z,97510.06
2023-05-25T04:17:22.442Z,97508.72
2023-05-25T04:22:44.999Z,97508.00
2023-05-25T04:28:08.513Z,97493.44
2023-05-25T04:33:59.144Z,97495.63
2023-05-25T04:39:25.613Z,97493.69
2023-05-25T04:44:53.354Z,97494.06
2023-05-25T04:50:14.596Z,97490.97
2023-05-25T04:55:35.972Z,97498.09
2023-05-25T05:00:56.710Z,97498.38
2023-05-25T05:06:18.149Z,97500.69
2023-05-25T05:11:40.066Z,97499.91
2023-05-25T05:17:01.834Z,97504.44
2023-05-25T05:22:23.099Z,97505.75
2023-05-25T05:27:44.357Z,97511.16
2023-05-25T05:33:18.274Z,97517.22
2023-05-25T05:38:41.632Z,97528.50
2023-05-25T05:44:03.073Z,97527.88
2023-05-25T05:49:23.799Z,97530.84
2023-05-25T05:54:45.027Z,97538.63
2023-05-25T06:00:10.053Z,97538.97
2023-05-25T06:05:37.202Z,97547.72
2023-05-25T06:10:58.300Z,97541.19
2023-05-25T06:16:19.618Z,97546.44
2023-05-25T06:21:40.680Z,97548.78
2023-05-25T06:27:03.300Z,97547.75
2023-05-25T06:32:24.072Z,97553.41
2023-05-25T06:37:50.204Z,97561.69
2023-05-25T06:43:12.995Z,97568.38
2023-05-25T06:49:03.654Z,97560.66
2023-05-25T06:54:24.333Z,97560.63
2023-05-25T06:59:45.123Z,97555.53
2023-05-25T07:05:06.555Z,97559.84
2023-05-25T07:10:27.294Z,97558.91
2023-05-25T07:15:48.282Z,97571.97
2023-05-25T07:21:12.123Z,97566.34
2023-05-25T07:26:34.709Z,97564.41
2023-05-25T07:31:55.434Z,97572.19
2023-05-25T07:37:16.129Z,97573.22
2023-05-25T07:42:37.239Z,97565.06
2023-05-25T07:47:57.896Z,97570.81
2023-05-25T07:53:18.555Z,97571.28
2023-05-25T07:58:39.394Z,97579.03
2023-05-25T08:04:00.330Z,97577.59
2023-05-25T08:09:21.573Z,97580.25
2023-05-25T08:14:42.417Z,97576.88
2023-05-25T08:20:06.246Z,97577.00
2023-05-25T08:25:27.168Z,97573.31
2023-05-25T08:30:48.006Z,97582.00
2023-05-25T08:36:09.416Z,97575.66
2023-05-25T08:41:30.510Z,97585.88
2023-05-25T08:46:52.017Z,97589.50
2023-05-25T08:52:21.629Z,97587.94
2023-05-25T08:58:17.264Z,97591.91
2023-05-25T09:03:39.595Z,97587.31
2023-05-25T09:09:00.736Z,97592.59
2023-05-25T09:14:22.575Z,97592.94
2023-05-25T09:19:44.128Z,97584.22
2023-05-25T09:25:10.297Z,97587.34
2023-05-25T09:30:33.266Z,97581.75
2023-05-25T09:35:53.872Z,97582.75
2023-05-25T09:41:14.960Z,97588.69
2023-05-25T09:46:39.400Z,97582.06
2023-05-25T09:52:01.452Z,97580.94
2023-05-25T09:57:22.353Z,97585.84
2023-05-25T10:02:43.349Z,97584.69
2023-05-25T10:08:04.780Z,97582.88
2023-05-25T10:13:28.697Z,97573.84
2023-05-25T10:19:17.699Z,97570.38
2023-05-25T10:24:51.199Z,97566.75
2023-05-25T10:30:14.565Z,97570.19
2023-05-25T10:35:46.759Z,97564.44
2023-05-25T10:41:11.986Z,97558.47
2023-05-25T10:46:32.799Z,97552.09
2023-05-25T10:51:59.638Z,97562.63
2023-05-25T10:57:23.223Z,97559.78
2023-05-25T11:02:53.969Z,97548.91
2023-05-25T11:08:17.802Z,97548.38
2023-05-25T11:13:40.799Z,97546.06
2023-05-25T11:19:02.555Z,97541.97
2023-05-25T11:24:23.651Z,97539.63
2023-05-25T11:29:44.465Z,97531.50
2023-05-25T11:35:09.331Z,97535.00
2023-05-25T11:40:31.308Z,97527.34
2023-05-25T11:45:58.637Z,97532.28
2023-05-25T11:51:24.486Z,97521.66
2023-05-25T11:56:45.584Z,97511.09
2023-05-25T12:02:06.435Z,97503.41
2023-05-25T12:07:28.784Z,97510.44
2023-05-25T12:12:51.599Z,97499.50
2023-05-25T12:18:12.517Z,97494.22
2023-05-25T12:23:33.399Z,97510.41
2023-05-25T12:29:02.324Z,97497.31
2023-05-25T12:34:27.730Z,97503.78
2023-05-25T12:39:49.112Z,97501.47
2023-05-25T12:45:11.442Z,97501.31
2023-05-25T12:50:32.839Z,97488.09
2023-05-25T12:56:04.519Z,97486.81
2023-05-25T13:01:27.191Z,97482.34
2023-05-25T13:06:48.205Z,97479.69
2023-05-25T13:12:09.490Z,97476.34
2023-05-25T13:17:30.181Z,97474.16
2023-05-25T13:22:52.708Z,97464.63
2023-05-25T13:28:13.728Z,97469.44
2023-05-25T13:33:34.437Z,97468.28
2023-05-25T13:38:55.727Z,97463.72
2023-05-25T13:44:17.786Z,97464.53
2023-05-25T13:49:39.290Z,97464.84
2023-05-25T13:55:00.214Z,97467.53
2023-05-25T14:00:21.353Z,97457.16
2023-05-25T14:05:42.747Z,97445.66
2023-05-25T14:11:04.045Z,97445.31
2023-05-25T14:16:25.273Z,97447.16
2023-05-25T14:21:48.292Z,97447.97
2023-05-25T14:27:12.493Z,97448.31
2023-05-25T14:32:33.280Z,97446.06
2023-05-25T14:37:54.081Z,97444.94
2023-05-25T14:43:14.622Z,97438.47
2023-05-25T14:48:36.333Z,97436.81
2023-05-25T14:53:57.865Z,97434.34
2023-05-25T14:59:18.875Z,97435.19
2023-05-25T15:04:39.750Z,97428.88
2023-05-25T15:10:00.641Z,97433.72
2023-05-25T15:15:21.702Z,97428.72
2023-05-25T15:20:42.475Z,97421.94
2023-05-25T15:26:04.377Z,97416.47
2023-05-25T15:31:25.717Z,97419.41
2023-05-25T15:36:46.958Z,97408.19
2023-05-25T15:42:07.885Z,97413.81
2023-05-25T15:47:28.878Z,97409.09
2023-05-25T15:52:49.843Z,97411.94
2023-05-25T15:58:11.564Z,97413.38
2023-05-25T16:03:32.748Z,97409.63
2023-05-25T16:08:53.970Z,97416.94
2023-05-25T16:14:14.673Z,97412.00
2023-05-25T16:19:35.517Z,97423.50
2023-05-25T16:24:56.213Z,97408.00
2023-05-25T16:30:17.082Z,97406.06
2023-05-25T16:35:37.692Z,97401.78
2023-05-25T16:40:58.475Z,97397.31
2023-05-25T16:46:21.143Z,97403.41
2023-05-25T16:51:42.910Z,97399.66
2023-05-25T16:57:03.848Z,97400.88
2023-05-25T17:02:25.236Z,97405.97
2023-05-25T17:07:46.267Z,97398.59
2023-05-25T17:13:07.163Z,97399.88
2023-05-25T17:18:28.713Z,97394.75
2023-05-25T17:23:49.629Z,97402.66
2023-05-25T17:29:10.492Z,97400.66
2023-05-25T17:34:31.209Z,97402.28
2023-05-25T17:39:52.218Z,97406.00
2023-05-25T17:45:13.382Z,97411.03
2023-05-25T17:50:34.548Z,97405.34
2023-05-25T17:55:55.746Z,97415.78
2023-05-25T18:01:16.963Z,97415.84
2023-05-25T18:06:37.816Z,97425.03
2023-05-25T18:11:58.698Z,97435.00
2023-05-25T18:17:19.665Z,97434.03
2023-05-25T18:22:41.434Z,97431.44
2023-05-25T18:28:02.596Z,97438.69
2023-05-25T18:33:23.280Z,97444.34
2023-05-25T18:38:44.251Z,97445.56
2023-05-25T18:44:05.404Z,97445.59
2023-05-25T18:49:27.067Z,97443.16
2023-05-25T18:54:49.293Z,97458.66
2023-05-25T19:00:10.661Z,97453.41
2023-05-25T19:05:35.008Z,97465.94
2023-05-25T19:10:55.828Z,97476.97
2023-05-25T19:16:16.502Z,97483.31
2023-05-25T19:21:37.290Z,97484.63
2023-05-25T19:26:57.980Z,97488.06
2023-05-25T19:32:18.841Z,97494.59
2023-05-25T19:37:41.270Z,97498.50
2023-05-25T19:43:02.449Z,97499.09
2023-05-25T19:48:25.261Z,97503.75
2023-05-25T19:53:48.044Z,97508.16
2023-05-25T19:59:09.153Z,97496.78
2023-05-25T20:04:29.921Z,97505.53
2023-05-25T20:09:50.720Z,97508.31
2023-05-25T20:15:11.858Z,97510.25
2023-05-25T20:20:32.830Z,97511.13
2023-05-25T20:25:53.427Z,97523.09
2023-05-25T20:31:14.488Z,97521.44
2023-05-25T20:36:35.130Z,97529.09
2023-05-25T20:41:56.074Z,97537.06
2023-05-25T20:47:17.092Z,97536.03
2023-05-25T20:52:37.691Z,97536.63
2023-05-25T20:58:00.750Z,97535.88
2023-05-25T21:03:21.721Z,97542.56
2023-05-25T21:08:42.521Z,97546.59
2023-05-25T21:14:03.393Z,97542.22
2023-05-25T21:19:24.606Z,97543.41
2023-05-25T21:24:45.555Z,97546.72
2023-05-25T21:30:07.223Z,97544.84
2023-05-25T21:35:28.417Z,97548.44
2023-05-25T21:40:49.043Z,97557.00
2023-05-25T21:46:09.832Z,97560.38
2023-05-25T21:51:31.805Z,97558.44
2023-05-25T21:56:52.874Z,97567.38
2023-05-25T22:02:13.657Z,97575.00
2023-05-25T22:07:34.348Z,97575.84
2023-05-25T22:12:55.227Z,97577.38
2023-05-25T22:18:16.241Z,97576.41
2023-05-25T22:23:37.314Z,97578.53
2023-05-25T22:28:58.244Z,97582.16
2023-05-25T22:34:19.006Z,97593.06
2023-05-25T22:39:40.043Z,97587.72
2023-05-25T22:45:00.980Z,97591.16
2023-05-25T22:50:21.725Z,97585.09
2023-05-25T22:55:43.621Z,97586.75
2023-05-25T23:01:05.436Z,97598.50
2023-05-25T23:06:26.464Z,97587.59
2023-05-25T23:11:46.978Z,97590.53
2023-05-25T23:17:07.642Z,97591.50
2023-05-25T23:22:28.325Z,97593.84
2023-05-25T23:27:49.044Z,97596.88
2023-05-25T23:33:10.437Z,97599.22
2023-05-25T23:38:31.529Z,97600.25
2023-05-25T23:43:52.480Z,97599.03
2023-05-25T23:49:13.147Z,97603.03
2023-05-25T23:54:34.030Z,97590.19
2023-05-25T23:59:54.684Z,97592.53
